SHT22A EGLL-EGJB
Flight info
| Callsign | SHT22A |
|---|---|
| Flight time | 0h 32m |
| Altitude | 17000 |
| Route | DCT GOGSI N621 SAM/N0350F180 N63 LELNA DCT |
| Aircraft | A20N/M-SDGHIJ1LRWXY/SB1 |
Departure
| Time | 2026-05-04 11:08 |
|---|---|
| Airport | London Heathrow Airport (EGLL) |
Arrival
| Time | 2026-05-04 11:40 |
|---|---|
| Airport | Guernsey Airport (EGJB) |
| Time | Latitude | Longitude | Altitude | Speed | Heading |
|---|---|---|---|---|---|
| 2026-05-04 10:50 | 51.47399 | -0.48587 | 90 ft | 0 kts | 270° |
| 2026-05-04 10:56 | 51.47421 | -0.48475 | 90 ft | 3 kts | 179° |
| 2026-05-04 10:56 | 51.47439 | -0.48475 | 88 ft | 0 kts | 179° |
| 2026-05-04 10:58 | 51.47440 | -0.48475 | 88 ft | 1 kts | 178° |
| 2026-05-04 10:58 | 51.47429 | -0.48475 | 88 ft | 5 kts | 179° |
| 2026-05-04 10:58 | 51.47389 | -0.48475 | 100 ft | 6 kts | 180° |
| 2026-05-04 10:58 | 51.47347 | -0.48473 | 86 ft | 6 kts | 176° |
| 2026-05-04 10:59 | 51.47310 | -0.48471 | 86 ft | 5 kts | 180° |
| 2026-05-04 10:59 | 51.47265 | -0.48473 | 89 ft | 8 kts | 182° |
| 2026-05-04 10:59 | 51.47210 | -0.48473 | 86 ft | 9 kts | 179° |
| 2026-05-04 10:59 | 51.47144 | -0.48473 | 86 ft | 10 kts | 179° |
| 2026-05-04 11:00 | 51.47076 | -0.48472 | 89 ft | 9 kts | 179° |
| 2026-05-04 11:01 | 51.46653 | -0.48285 | 86 ft | 10 kts | 89° |
| 2026-05-04 11:02 | 51.46654 | -0.48151 | 86 ft | 14 kts | 88° |
| 2026-05-04 11:02 | 51.46655 | -0.47961 | 86 ft | 19 kts | 90° |
| 2026-05-04 11:05 | 51.46596 | -0.45890 | 88 ft | 8 kts | 143° |
| 2026-05-04 11:06 | 51.46538 | -0.45826 | 86 ft | 9 kts | 147° |
| 2026-05-04 11:06 | 51.46496 | -0.45809 | 85 ft | 4 kts | 212° |
| 2026-05-04 11:06 | 51.46487 | -0.45847 | 88 ft | 0 kts | 268° |
| 2026-05-04 11:08 | 51.46472 | -0.53010 | 1862 ft | 172 kts | 272° |
| 2026-05-04 11:10 | 51.45412 | -0.71219 | 7715 ft | 271 kts | 266° |
| 2026-05-04 11:12 | 51.40768 | -0.89369 | 14589 ft | 297 kts | 198° |
| 2026-05-04 11:12 | 51.38717 | -0.90510 | 14963 ft | 320 kts | 202° |
| 2026-05-04 11:12 | 51.37334 | -0.91497 | 15144 ft | 336 kts | 206° |
| 2026-05-04 11:12 | 51.34561 | -0.94027 | 15919 ft | 351 kts | 212° |
| 2026-05-04 11:13 | 51.32509 | -0.96205 | 16348 ft | 355 kts | 214° |
| 2026-05-04 11:13 | 51.30483 | -0.98447 | 16464 ft | 355 kts | 214° |
| 2026-05-04 11:13 | 51.28453 | -1.00706 | 16577 ft | 356 kts | 213° |
| 2026-05-04 11:13 | 51.26394 | -1.02901 | 16688 ft | 356 kts | 212° |
| 2026-05-04 11:14 | 51.24991 | -1.04352 | 16768 ft | 356 kts | 212° |
| 2026-05-04 11:14 | 51.22225 | -1.07183 | 16919 ft | 357 kts | 212° |
| 2026-05-04 11:14 | 51.20809 | -1.08632 | 17002 ft | 358 kts | 212° |
| 2026-05-04 11:16 | 51.06191 | -1.23624 | 17016 ft | 358 kts | 212° |
| 2026-05-04 11:16 | 51.04097 | -1.25764 | 17019 ft | 358 kts | 212° |
| 2026-05-04 11:16 | 51.02005 | -1.27901 | 17020 ft | 358 kts | 212° |
| 2026-05-04 11:17 | 50.99912 | -1.30036 | 17021 ft | 358 kts | 212° |
| 2026-05-04 11:17 | 50.97817 | -1.32171 | 17020 ft | 358 kts | 212° |
| 2026-05-04 11:19 | 50.82275 | -1.45085 | 18019 ft | 362 kts | 206° |
| 2026-05-04 11:19 | 50.80025 | -1.46876 | 18017 ft | 362 kts | 206° |
| 2026-05-04 11:19 | 50.77778 | -1.48662 | 18016 ft | 362 kts | 206° |
| 2026-05-04 11:19 | 50.75525 | -1.50450 | 18017 ft | 362 kts | 206° |
| 2026-05-04 11:20 | 50.73278 | -1.52231 | 18017 ft | 362 kts | 206° |
| 2026-05-04 11:20 | 50.71026 | -1.54015 | 18017 ft | 362 kts | 206° |
| 2026-05-04 11:20 | 50.68775 | -1.55796 | 18017 ft | 362 kts | 206° |
| 2026-05-04 11:20 | 50.66526 | -1.57574 | 18017 ft | 362 kts | 206° |
| 2026-05-04 11:22 | 50.50799 | -1.69951 | 18018 ft | 361 kts | 205° |
| 2026-05-04 11:22 | 50.48550 | -1.71714 | 18018 ft | 361 kts | 205° |
| 2026-05-04 11:23 | 50.46303 | -1.73473 | 18018 ft | 361 kts | 205° |
| 2026-05-04 11:23 | 50.44054 | -1.75231 | 18018 ft | 361 kts | 205° |
| 2026-05-04 11:24 | 50.30543 | -1.85757 | 18019 ft | 363 kts | 205° |
| 2026-05-04 11:25 | 50.28284 | -1.87510 | 17997 ft | 363 kts | 205° |
| 2026-05-04 11:25 | 50.26021 | -1.89265 | 17779 ft | 362 kts | 205° |
| 2026-05-04 11:25 | 50.23768 | -1.91010 | 17502 ft | 360 kts | 205° |
| 2026-05-04 11:26 | 50.19296 | -1.94468 | 16422 ft | 356 kts | 205° |
| 2026-05-04 11:27 | 50.04372 | -2.05956 | 12726 ft | 329 kts | 205° |
| 2026-05-04 11:28 | 50.02334 | -2.07520 | 12226 ft | 325 kts | 205° |
| 2026-05-04 11:28 | 50.00314 | -2.09067 | 11739 ft | 321 kts | 205° |
| 2026-05-04 11:28 | 49.98327 | -2.10614 | 11259 ft | 319 kts | 207° |
| 2026-05-04 11:28 | 49.96455 | -2.12444 | 10757 ft | 316 kts | 212° |
| 2026-05-04 11:29 | 49.94628 | -2.14316 | 10336 ft | 312 kts | 212° |
| 2026-05-04 11:29 | 49.92854 | -2.16128 | 10197 ft | 299 kts | 212° |
| 2026-05-04 11:29 | 49.91154 | -2.17860 | 10021 ft | 288 kts | 212° |
| 2026-05-04 11:29 | 49.89490 | -2.19551 | 9685 ft | 282 kts | 212° |
| 2026-05-04 11:31 | 49.78024 | -2.31141 | 7424 ft | 275 kts | 212° |
| 2026-05-04 11:33 | 49.66439 | -2.38927 | 5056 ft | 266 kts | 179° |
| 2026-05-04 11:33 | 49.64607 | -2.38898 | 4801 ft | 261 kts | 179° |
| 2026-05-04 11:33 | 49.62778 | -2.38876 | 4548 ft | 264 kts | 179° |
| 2026-05-04 11:34 | 49.60955 | -2.38858 | 4281 ft | 259 kts | 179° |
| 2026-05-04 11:34 | 49.59173 | -2.38841 | 4023 ft | 253 kts | 179° |
| 2026-05-04 11:34 | 49.57429 | -2.38824 | 3764 ft | 248 kts | 179° |
| 2026-05-04 11:34 | 49.55721 | -2.38807 | 3526 ft | 243 kts | 179° |
| 2026-05-04 11:35 | 49.54058 | -2.38791 | 3346 ft | 236 kts | 179° |
| 2026-05-04 11:35 | 49.52441 | -2.38775 | 3165 ft | 229 kts | 179° |
| 2026-05-04 11:35 | 49.50870 | -2.38759 | 2981 ft | 223 kts | 179° |
| 2026-05-04 11:35 | 49.49338 | -2.38744 | 2820 ft | 215 kts | 179° |
| 2026-05-04 11:36 | 49.47872 | -2.38732 | 2694 ft | 205 kts | 179° |
| 2026-05-04 11:36 | 49.46479 | -2.38718 | 2605 ft | 195 kts | 179° |
| 2026-05-04 11:36 | 49.45169 | -2.38879 | 2497 ft | 185 kts | 200° |
| 2026-05-04 11:36 | 49.44205 | -2.40114 | 2489 ft | 187 kts | 242° |
| 2026-05-04 11:37 | 49.43918 | -2.42055 | 2492 ft | 189 kts | 265° |
| 2026-05-04 11:37 | 49.43893 | -2.44070 | 2342 ft | 188 kts | 269° |
| 2026-05-04 11:37 | 49.43877 | -2.45998 | 2093 ft | 171 kts | 268° |
| 2026-05-04 11:37 | 49.43838 | -2.47717 | 1870 ft | 156 kts | 267° |
| 2026-05-04 11:38 | 49.43795 | -2.49320 | 1663 ft | 145 kts | 267° |
| 2026-05-04 11:38 | 49.43753 | -2.50836 | 1481 ft | 143 kts | 268° |
| 2026-05-04 11:38 | 49.43714 | -2.52364 | 1296 ft | 142 kts | 268° |
| 2026-05-04 11:38 | 49.43669 | -2.53872 | 1096 ft | 141 kts | 268° |
| 2026-05-04 11:39 | 49.43632 | -2.55382 | 898 ft | 142 kts | 266° |
| 2026-05-04 11:39 | 49.43594 | -2.56891 | 688 ft | 142 kts | 266° |
| 2026-05-04 11:40 | 49.43459 | -2.61356 | 315 ft | 1 kts | 225° |
| 2026-05-04 11:41 | 49.43456 | -2.61356 | 315 ft | 1 kts | 192° |
| 2026-05-04 11:41 | 49.43434 | -2.61355 | 316 ft | 5 kts | 172° |
| 2026-05-04 11:41 | 49.43391 | -2.61310 | 315 ft | 10 kts | 133° |
| 2026-05-04 11:41 | 49.43358 | -2.61186 | 312 ft | 15 kts | 85° |
| 2026-05-04 11:42 | 49.43365 | -2.60996 | 310 ft | 20 kts | 89° |
| 2026-05-04 11:42 | 49.43344 | -2.60766 | 299 ft | 22 kts | 100° |
| 2026-05-04 11:42 | 49.43326 | -2.60538 | 297 ft | 19 kts | 87° |
| 2026-05-04 11:42 | 49.43332 | -2.60321 | 295 ft | 21 kts | 87° |
| 2026-05-04 11:43 | 49.43337 | -2.60109 | 305 ft | 18 kts | 88° |
| 2026-05-04 11:43 | 49.43341 | -2.59976 | 316 ft | 9 kts | 87° |